Time;durP1;ratioP1;P1;durP2;ratioP2;P2;SDS_P1;SDS_P2;PMS_P1;PMS_P2;Temp;Humidity;BMP_temperature;BMP_pressure;BME280_temperature;BME280_humidity;BME280_pressure;Samples;Min_cycle;Max_cycle;Signal;HPM_P1;HPM_P2
2022/09/03 00:00:38;;;;;;;0.50;0.50;;;16.20;98.70;;;;;;5076684;28;20060;-81
2022/09/03 00:03:21;;;;;;;0.50;0.50;;;16.10;98.60;;;;;;5093105;27;20042;-80
2022/09/03 00:06:15;;;;;;;0.50;0.50;;;16.00;98.80;;;;;;5086554;27;20409;-81
2022/09/03 00:08:47;;;;;;;0.50;0.50;;;16.10;98.60;;;;;;5070789;28;20143;-81
2022/09/03 00:11:24;;;;;;;0.50;0.50;;;16.10;98.50;;;;;;5088657;28;20046;-80
2022/09/03 00:14:17;;;;;;;0.50;0.50;;;16.10;98.50;;;;;;5087068;28;20130;-82
2022/09/03 00:16:53;;;;;;;0.45;0.45;;;16.00;98.50;;;;;;5086988;28;20653;-80
2022/09/03 00:19:25;;;;;;;0.40;0.40;;;16.10;98.40;;;;;;5085741;28;20055;-82
2022/09/03 00:22:17;;;;;;;0.50;0.50;;;16.10;98.50;;;;;;5088732;28;20047;-81
2022/09/03 00:24:45;;;;;;;0.50;0.50;;;15.90;98.70;;;;;;5086501;28;20039;-81
2022/09/03 00:27:20;;;;;;;0.50;0.50;;;15.90;98.60;;;;;;5089337;28;20043;-82
2022/09/03 00:29:56;;;;;;;0.50;0.50;;;15.90;98.70;;;;;;5069306;27;20088;-81
2022/09/03 00:32:46;;;;;;;0.50;0.50;;;15.90;98.60;;;;;;5094337;27;20038;-81
2022/09/03 00:35:35;;;;;;;0.50;0.50;;;15.80;98.70;;;;;;5095647;27;20115;-81
2022/09/03 00:38:01;;;;;;;0.50;0.50;;;15.80;98.80;;;;;;5039608;27;20051;-81
2022/09/03 00:40:54;;;;;;;0.50;0.50;;;15.70;98.90;;;;;;5069202;27;20440;-82
2022/09/03 00:43:57;;;;;;;0.50;0.50;;;15.70;98.90;;;;;;5091738;27;20559;-81
2022/09/03 00:46:33;;;;;;;0.50;0.50;;;15.60;99.00;;;;;;5089146;27;20114;-80
2022/09/03 00:49:08;;;;;;;0.50;0.50;;;15.60;99.10;;;;;;5081901;27;20040;-82
2022/09/03 00:51:43;;;;;;;0.50;0.50;;;15.70;98.80;;;;;;5072931;27;20059;-80
2022/09/03 00:54:22;;;;;;;0.50;0.50;;;15.60;99.20;;;;;;5069417;27;20043;-81
2022/09/03 00:57:14;;;;;;;0.50;0.50;;;15.60;99.00;;;;;;5091725;27;20061;-81
2022/09/03 00:59:57;;;;;;;0.50;0.50;;;15.50;99.10;;;;;;5087722;27;20602;-80
2022/09/03 01:02:30;;;;;;;0.60;0.60;;;15.40;99.30;;;;;;5089069;27;20086;-82
2022/09/03 01:05:17;;;;;;;0.50;0.50;;;15.40;99.40;;;;;;5073532;27;20041;-80
2022/09/03 01:08:03;;;;;;;0.50;0.50;;;15.50;99.00;;;;;;5094304;27;20053;-80
2022/09/03 01:10:55;;;;;;;0.50;0.50;;;15.40;99.50;;;;;;5094936;27;20050;-80
2022/09/03 01:14:01;;;;;;;0.50;0.50;;;15.50;99.30;;;;;;5083775;27;20062;-80
2022/09/03 01:16:31;;;;;;;0.47;0.47;;;15.50;99.20;;;;;;5070682;27;20055;-80
2022/09/03 01:19:31;;;;;;;0.50;0.50;;;15.50;99.20;;;;;;5089953;27;20048;-82
2022/09/03 01:22:37;;;;;;;0.50;0.50;;;15.50;99.10;;;;;;5094103;27;20079;-80
2022/09/03 01:25:21;;;;;;;0.50;0.50;;;15.50;99.20;;;;;;5071445;27;20514;-82
2022/09/03 01:28:07;;;;;;;0.50;0.50;;;15.50;99.20;;;;;;5095399;27;20055;-80
2022/09/03 01:30:38;;;;;;;0.50;0.50;;;15.50;99.20;;;;;;5093274;27;20039;-81
2022/09/03 01:33:19;;;;;;;0.50;0.50;;;15.50;99.30;;;;;;5074560;27;20078;-81
2022/09/03 01:35:58;;;;;;;0.50;0.50;;;15.50;99.40;;;;;;5093565;27;20078;-80
2022/09/03 01:38:23;;;;;;;0.50;0.50;;;15.60;99.20;;;;;;5098070;27;20055;-81
2022/09/03 01:44:22;;;;;;;0.50;0.50;;;15.40;99.60;;;;;;5093851;27;20039;-80
2022/09/03 01:46:59;;;;;;;0.50;0.50;;;15.60;99.20;;;;;;5100707;27;20043;-80
2022/09/03 01:49:36;;;;;;;0.50;0.50;;;15.50;99.70;;;;;;5103450;27;20105;-81
2022/09/03 01:52:14;;;;;;;0.50;0.50;;;15.40;99.70;;;;;;5104167;27;20042;-81
2022/09/03 01:54:54;;;;;;;0.50;0.50;;;15.40;99.60;;;;;;5102567;27;20051;-81
2022/09/03 01:57:55;;;;;;;0.60;0.60;;;15.40;99.80;;;;;;5085403;27;20054;-80
2022/09/03 02:00:21;;;;;;;0.50;0.50;;;15.50;99.40;;;;;;5085726;27;20100;-80
2022/09/03 02:02:51;;;;;;;0.60;0.60;;;15.40;99.80;;;;;;5105285;27;20819;-80
2022/09/03 02:05:23;;;;;;;0.60;0.60;;;15.40;99.70;;;;;;5079633;27;20048;-80
2022/09/03 02:07:59;;;;;;;0.50;0.50;;;15.40;99.60;;;;;;5095874;27;20060;-81
2022/09/03 02:10:31;;;;;;;0.60;0.60;;;15.40;99.60;;;;;;5099572;27;20044;-81
2022/09/03 02:13:23;;;;;;;0.50;0.50;;;15.40;99.80;;;;;;5078036;27;20051;-80
2022/09/03 02:15:52;;;;;;;0.50;0.50;;;15.40;99.50;;;;;;5098207;27;20044;-81
2022/09/03 02:18:28;;;;;;;0.50;0.50;;;15.40;99.60;;;;;;5096766;27;20050;-81
2022/09/03 02:20:54;;;;;;;0.50;0.50;;;15.50;99.50;;;;;;5081158;27;20069;-81
2022/09/03 02:23:22;;;;;;;0.50;0.50;;;15.40;99.70;;;;;;5102204;27;20043;-81
2022/09/03 02:25:55;;;;;;;0.50;0.50;;;15.40;99.80;;;;;;5080464;27;20062;-80
2022/09/03 02:28:22;;;;;;;0.50;0.50;;;15.50;99.70;;;;;;5080944;27;20489;-78
2022/09/03 02:30:48;;;;;;;0.50;0.50;;;15.50;99.50;;;;;;5106247;27;20036;-80
2022/09/03 02:33:14;;;;;;;0.50;0.50;;;15.40;99.80;;;;;;5108043;27;20499;-81
2022/09/03 02:35:41;;;;;;;0.50;0.50;;;15.50;99.60;;;;;;5106241;27;20043;-82
2022/09/03 02:38:17;;;;;;;0.50;0.50;;;15.60;99.50;;;;;;5103670;27;20051;-81
2022/09/03 02:40:44;;;;;;;0.50;0.50;;;15.50;99.80;;;;;;5090456;27;20459;-82
2022/09/03 02:43:20;;;;;;;0.50;0.50;;;15.50;99.50;;;;;;5106938;27;20126;-81
2022/09/03 02:45:48;;;;;;;0.50;0.50;;;15.50;99.50;;;;;;5104940;27;20164;-81
2022/09/03 02:48:18;;;;;;;0.50;0.50;;;15.50;99.80;;;;;;5104536;27;20077;-82
2022/09/03 02:50:43;;;;;;;0.50;0.50;;;15.40;99.60;;;;;;5106984;27;20511;-82
2022/09/03 02:53:09;;;;;;;0.50;0.50;;;15.40;99.70;;;;;;5084826;27;20038;-82
2022/09/03 02:55:35;;;;;;;0.50;0.50;;;15.40;99.60;;;;;;5104079;27;20050;-83
2022/09/03 02:58:01;;;;;;;0.50;0.50;;;15.40;99.70;;;;;;5083897;27;20058;-81
2022/09/03 03:00:27;;;;;;;0.50;0.50;;;15.40;99.70;;;;;;5083988;27;20047;-82
2022/09/03 03:02:54;;;;;;;0.50;0.50;;;15.30;99.90;;;;;;5104847;27;20042;-82
2022/09/03 03:05:37;;;;;;;0.50;0.50;;;15.20;99.90;;;;;;5102579;27;20145;-81
2022/09/03 03:08:02;;;;;;;0.55;0.55;;;15.30;99.90;;;;;;5101883;27;20058;-81
2022/09/03 03:10:28;;;;;;;0.50;0.50;;;15.30;99.90;;;;;;5106140;27;21042;-81
2022/09/03 03:12:54;;;;;;;0.52;0.52;;;15.20;99.90;;;;;;5101085;27;20528;-82
2022/09/03 03:15:20;;;;;;;0.50;0.50;;;15.20;99.90;;;;;;5085049;27;20130;-82
2022/09/03 03:17:45;;;;;;;0.55;0.55;;;15.20;99.90;;;;;;5086685;27;20074;-81
2022/09/03 03:20:11;;;;;;;0.50;0.50;;;15.20;99.90;;;;;;5084007;27;20035;-81
2022/09/03 03:22:37;;;;;;;0.60;0.60;;;15.20;99.90;;;;;;5105936;27;20666;-81
2022/09/03 03:25:04;;;;;;;0.50;0.50;;;15.20;99.90;;;;;;5082755;27;20027;-80
2022/09/03 03:27:30;;;;;;;0.50;0.50;;;15.20;99.90;;;;;;5082237;27;20051;-82
2022/09/03 03:29:56;;;;;;;0.50;0.50;;;15.10;99.90;;;;;;5103283;27;20049;-81
2022/09/03 03:32:22;;;;;;;0.50;0.50;;;15.00;99.90;;;;;;5106549;27;20140;-81
2022/09/03 03:34:48;;;;;;;0.50;0.50;;;15.00;99.90;;;;;;5086967;27;20051;-81
2022/09/03 03:37:14;;;;;;;0.50;0.50;;;15.00;99.90;;;;;;5104351;27;21195;-81
2022/09/03 03:39:39;;;;;;;0.50;0.50;;;15.00;99.90;;;;;;5105594;27;20449;-81
2022/09/03 03:42:05;;;;;;;0.50;0.50;;;14.90;99.90;;;;;;5104565;27;20059;-81
2022/09/03 03:44:31;;;;;;;0.50;0.50;;;14.80;99.90;;;;;;5071258;27;20081;-82
2022/09/03 03:46:57;;;;;;;0.60;0.60;;;14.90;99.90;;;;;;5105766;27;20051;-81
2022/09/03 03:49:22;;;;;;;0.50;0.50;;;14.80;99.90;;;;;;5084296;28;20103;-82
2022/09/03 03:51:48;;;;;;;0.50;0.50;;;14.70;99.90;;;;;;5085228;27;20407;-82
2022/09/03 03:54:14;;;;;;;0.60;0.60;;;14.70;99.90;;;;;;5105455;27;20074;-82
2022/09/03 03:56:39;;;;;;;0.60;0.60;;;14.60;99.90;;;;;;5106075;27;20051;-81
2022/09/03 03:59:05;;;;;;;0.60;0.60;;;14.60;99.90;;;;;;5085173;27;20132;-82
2022/09/03 04:01:31;;;;;;;0.60;0.60;;;14.50;99.90;;;;;;5099942;27;20059;-81
2022/09/03 04:03:59;;;;;;;0.60;0.60;;;14.60;99.90;;;;;;5106237;27;20035;-81
2022/09/03 04:06:25;;;;;;;0.60;0.60;;;14.40;99.90;;;;;;5085954;27;20047;-81
2022/09/03 04:08:51;;;;;;;0.60;0.60;;;14.40;99.90;;;;;;5104078;28;20047;-84
2022/09/03 04:11:19;;;;;;;0.50;0.50;;;14.30;99.90;;;;;;5103808;28;20448;-80
2022/09/03 04:13:46;;;;;;;0.60;0.60;;;14.30;99.90;;;;;;5104780;28;20062;-81
2022/09/03 04:16:18;;;;;;;0.50;0.50;;;14.30;99.90;;;;;;5105624;28;20043;-81
2022/09/03 04:18:44;;;;;;;0.52;0.52;;;14.30;99.90;;;;;;5105148;28;20766;-82
2022/09/03 04:21:19;;;;;;;0.50;0.50;;;14.30;99.90;;;;;;5106426;28;20054;-82
2022/09/03 04:23:46;;;;;;;0.50;0.50;;;14.30;99.90;;;;;;5105625;28;20118;-82
2022/09/03 04:26:16;;;;;;;0.50;0.50;;;14.20;99.90;;;;;;5087704;28;20047;-82
2022/09/03 04:28:41;;;;;;;0.50;0.50;;;14.10;99.90;;;;;;5106121;28;20070;-81
2022/09/03 04:31:09;;;;;;;0.50;0.50;;;14.10;99.90;;;;;;5104983;28;20563;-82
2022/09/03 04:33:37;;;;;;;0.50;0.50;;;14.10;99.90;;;;;;5088660;27;20051;-81
2022/09/03 04:36:11;;;;;;;0.52;0.52;;;14.10;99.90;;;;;;5085411;28;20047;-80
2022/09/03 04:38:39;;;;;;;0.50;0.50;;;14.00;99.90;;;;;;5104867;28;20082;-81
2022/09/03 04:41:08;;;;;;;0.52;0.52;;;14.10;99.90;;;;;;5108361;28;20057;-81
2022/09/03 04:43:34;;;;;;;0.60;0.60;;;14.00;99.90;;;;;;5103531;28;20105;-82
2022/09/03 04:46:02;;;;;;;0.50;0.50;;;14.10;99.90;;;;;;5102971;28;20574;-81
2022/09/03 04:48:29;;;;;;;0.50;0.50;;;14.00;99.90;;;;;;5087231;28;20096;-82
2022/09/03 04:51:02;;;;;;;0.50;0.50;;;14.00;99.90;;;;;;5103461;27;20057;-83
2022/09/03 04:53:27;;;;;;;0.60;0.60;;;14.00;99.90;;;;;;5105378;28;20663;-84
2022/09/03 04:55:53;;;;;;;0.50;0.50;;;14.00;99.90;;;;;;5083792;28;20301;-81
2022/09/03 04:58:19;;;;;;;0.57;0.57;;;14.10;99.90;;;;;;5086928;28;20046;-82
2022/09/03 05:00:44;;;;;;;0.60;0.60;;;14.10;99.90;;;;;;5105364;28;20170;-81
2022/09/03 05:03:10;;;;;;;0.50;0.50;;;14.00;99.90;;;;;;5098997;28;20052;-83
2022/09/03 05:05:36;;;;;;;0.55;0.55;;;14.10;99.90;;;;;;5103931;28;20243;-80
2022/09/03 05:08:02;;;;;;;0.60;0.60;;;14.10;99.90;;;;;;5102617;28;20412;-82
2022/09/03 05:10:29;;;;;;;0.50;0.50;;;14.10;99.90;;;;;;5101600;28;21859;-82
2022/09/03 05:13:00;;;;;;;0.50;0.50;;;14.10;99.90;;;;;;5079711;28;20047;-81
2022/09/03 05:15:27;;;;;;;0.50;0.50;;;14.20;99.90;;;;;;5102194;27;20518;-81
2022/09/03 05:18:00;;;;;;;0.60;0.60;;;14.20;99.90;;;;;;5086658;27;20845;-81
2022/09/03 05:20:31;;;;;;;0.60;0.60;;;14.30;99.90;;;;;;5105151;27;20130;-81
2022/09/03 05:23:02;;;;;;;0.50;0.50;;;14.40;99.90;;;;;;5107353;27;20079;-83
2022/09/03 05:25:30;;;;;;;0.60;0.60;;;15.10;99.90;;;;;;5105792;27;20042;-82
2022/09/03 05:27:57;;;;;;;0.60;0.60;;;15.50;99.90;;;;;;5082961;27;20090;-82
2022/09/03 05:30:23;;;;;;;0.55;0.55;;;15.80;99.90;;;;;;5078189;27;20050;-81
2022/09/03 05:32:49;;;;;;;0.60;0.60;;;16.10;99.90;;;;;;5106435;27;20047;-82
2022/09/03 05:35:15;;;;;;;0.60;0.60;;;16.00;99.90;;;;;;5105813;27;20096;-82
2022/09/03 05:37:40;;;;;;;0.60;0.60;;;16.40;99.90;;;;;;5084264;27;20138;-81
2022/09/03 05:40:10;;;;;;;0.60;0.60;;;16.10;99.90;;;;;;5103507;27;20402;-82
2022/09/03 05:42:37;;;;;;;0.50;0.50;;;16.40;99.90;;;;;;5103195;27;20043;-83
2022/09/03 05:45:12;;;;;;;0.60;0.60;;;16.70;99.90;;;;;;5102347;27;20548;-84
2022/09/03 05:47:38;;;;;;;0.50;0.50;;;16.60;99.90;;;;;;5087012;27;20586;-82
2022/09/03 05:50:09;;;;;;;0.50;0.50;;;16.50;99.90;;;;;;5085813;27;20051;-83
2022/09/03 05:52:36;;;;;;;0.57;0.57;;;15.90;99.90;;;;;;5102571;27;20048;-82
2022/09/03 05:55:03;;;;;;;0.50;0.50;;;15.40;99.90;;;;;;5084263;27;20088;-81
2022/09/03 05:57:29;;;;;;;0.60;0.60;;;15.30;99.90;;;;;;5085744;27;20101;-81
2022/09/03 05:59:56;;;;;;;0.50;0.50;;;15.40;99.90;;;;;;5099312;27;20044;-81
2022/09/03 06:02:22;;;;;;;0.50;0.50;;;15.30;99.90;;;;;;5102138;27;20156;-81
2022/09/03 06:04:48;;;;;;;0.50;0.50;;;15.30;99.90;;;;;;5082825;27;20104;-79
2022/09/03 06:07:14;;;;;;;0.50;0.50;;;15.20;99.90;;;;;;5084823;27;20813;-82
2022/09/03 06:09:40;;;;;;;0.50;0.50;;;15.30;99.90;;;;;;5102648;27;20130;-80
2022/09/03 06:12:06;;;;;;;0.50;0.50;;;15.30;99.90;;;;;;5083508;27;20066;-81
2022/09/03 06:14:32;;;;;;;0.50;0.50;;;15.40;99.90;;;;;;5079977;27;20096;-80
2022/09/03 06:16:58;;;;;;;0.50;0.50;;;15.80;99.90;;;;;;5070188;27;20054;-81
2022/09/03 06:19:23;;;;;;;0.60;0.60;;;15.70;99.90;;;;;;5087318;27;20047;-81
2022/09/03 06:21:49;;;;;;;0.50;0.50;;;15.90;99.90;;;;;;5085984;27;20396;-80
2022/09/03 06:24:22;;;;;;;0.50;0.50;;;16.00;99.90;;;;;;5107694;27;20535;-82
2022/09/03 06:26:48;;;;;;;0.52;0.52;;;15.90;99.90;;;;;;5103913;27;20051;-82
2022/09/03 06:29:14;;;;;;;0.50;0.50;;;16.30;99.90;;;;;;5106357;27;20043;-81
2022/09/03 06:31:40;;;;;;;0.50;0.50;;;16.10;99.90;;;;;;5100121;27;20565;-81
2022/09/03 06:34:06;;;;;;;0.50;0.50;;;16.40;99.90;;;;;;5097582;27;20046;-83
2022/09/03 06:36:32;;;;;;;0.50;0.50;;;16.60;99.90;;;;;;5089734;27;20046;-79
2022/09/03 06:38:58;;;;;;;0.50;0.50;;;16.80;99.90;;;;;;5104039;27;20058;-81
2022/09/03 06:41:26;;;;;;;0.50;0.50;;;16.90;99.90;;;;;;5100018;27;20742;-81
2022/09/03 06:44:03;;;;;;;0.50;0.50;;;16.80;99.90;;;;;;5101329;27;20126;-82
2022/09/03 06:46:31;;;;;;;0.50;0.50;;;17.00;99.90;;;;;;5100844;27;20051;-82
2022/09/03 06:48:57;;;;;;;0.40;0.40;;;17.00;99.90;;;;;;5107380;27;20078;-81
2022/09/03 06:51:28;;;;;;;0.50;0.50;;;16.80;99.90;;;;;;5087756;27;20795;-79
2022/09/03 06:54:02;;;;;;;0.40;0.40;;;16.80;99.90;;;;;;5107711;27;20110;-80
2022/09/03 06:56:28;;;;;;;0.50;0.50;;;16.80;99.90;;;;;;5087730;27;20051;-81
2022/09/03 06:58:57;;;;;;;0.43;0.43;;;16.90;99.90;;;;;;5109115;27;20499;-80
2022/09/03 07:01:25;;;;;;;0.47;0.47;;;17.30;99.90;;;;;;5106613;27;20127;-80
2022/09/03 07:03:56;;;;;;;0.50;0.50;;;17.60;99.90;;;;;;5085114;27;20047;-83
2022/09/03 07:06:24;;;;;;;0.40;0.40;;;17.40;99.90;;;;;;5088888;27;20084;-80
2022/09/03 07:08:50;;;;;;;0.40;0.40;;;17.60;99.90;;;;;;5082377;27;20051;-83
2022/09/03 07:11:18;;;;;;;0.40;0.40;;;17.70;99.90;;;;;;5091099;27;20043;-84
2022/09/03 07:13:46;;;;;;;0.40;0.40;;;17.60;99.90;;;;;;5105063;27;20468;-82
2022/09/03 07:16:15;;;;;;;0.70;0.70;;;17.90;99.90;;;;;;5101635;27;20039;-81
2022/09/03 07:18:44;;;;;;;0.50;0.50;;;17.90;99.90;;;;;;5100394;27;20058;-81
2022/09/03 07:21:13;;;;;;;0.40;0.40;;;17.90;99.90;;;;;;5100104;27;20057;-82
2022/09/03 07:23:40;;;;;;;0.40;0.40;;;18.20;99.90;;;;;;5100564;27;20044;-81
2022/09/03 07:26:08;;;;;;;0.40;0.40;;;18.40;99.90;;;;;;5102312;27;20039;-81
2022/09/03 07:28:39;;;;;;;0.50;0.50;;;18.40;99.90;;;;;;5105365;27;20552;-80
2022/09/03 07:31:11;;;;;;;0.40;0.40;;;18.20;99.90;;;;;;5100438;27;20127;-79
2022/09/03 07:33:38;;;;;;;0.40;0.40;;;18.10;99.90;;;;;;5079425;27;20147;-79
2022/09/03 07:36:09;;;;;;;0.40;0.40;;;17.90;99.90;;;;;;5081118;28;20051;-79
2022/09/03 07:38:35;;;;;;;0.40;0.40;;;18.40;99.90;;;;;;5074443;28;20150;-81
2022/09/03 07:41:04;;;;;;;0.50;0.50;;;18.30;99.90;;;;;;5069263;28;20668;-80
2022/09/03 07:43:42;;;;;;;0.40;0.40;;;18.50;99.90;;;;;;5077176;28;20044;-80
2022/09/03 07:46:11;;;;;;;0.40;0.40;;;18.50;99.90;;;;;;5082987;28;20051;-80
2022/09/03 07:48:39;;;;;;;0.40;0.40;;;18.50;99.90;;;;;;5080714;28;21061;-82
2022/09/03 07:51:06;;;;;;;0.40;0.40;;;18.90;99.90;;;;;;5075865;28;20553;-79
2022/09/03 07:53:32;;;;;;;0.40;0.40;;;18.80;99.50;;;;;;5073812;28;20050;-79
2022/09/03 07:56:04;;;;;;;0.40;0.40;;;18.80;99.20;;;;;;5077921;28;20070;-82
2022/09/03 07:58:31;;;;;;;0.40;0.40;;;19.00;99.50;;;;;;5077503;28;20047;-80
2022/09/03 08:00:58;;;;;;;0.40;0.40;;;19.10;98.90;;;;;;5079412;28;20572;-80
2022/09/03 08:03:24;;;;;;;0.40;0.40;;;19.00;99.80;;;;;;5077150;28;20048;-82
2022/09/03 08:05:49;;;;;;;0.40;0.40;;;19.10;99.10;;;;;;5078202;28;20050;-80
2022/09/03 08:08:16;;;;;;;0.40;0.40;;;19.40;99.40;;;;;;5076732;28;20074;-81
2022/09/03 08:10:42;;;;;;;0.40;0.40;;;19.70;99.70;;;;;;5068689;28;20494;-79
2022/09/03 08:13:09;;;;;;;0.38;0.38;;;19.10;98.30;;;;;;5041436;28;20381;-81
2022/09/03 08:15:37;;;;;;;0.40;0.40;;;19.80;98.90;;;;;;5077233;28;20043;-81
2022/09/03 08:18:05;;;;;;;0.40;0.40;;;20.20;99.20;;;;;;5047877;28;20119;-79
2022/09/03 08:20:31;;;;;;;0.40;0.40;;;20.20;98.40;;;;;;5058404;28;20042;-82
2022/09/03 08:23:01;;;;;;;0.40;0.40;;;20.20;98.00;;;;;;5062804;28;20642;-81
2022/09/03 08:25:28;;;;;;;0.40;0.40;;;20.00;97.40;;;;;;5067148;28;20085;-80
2022/09/03 08:27:56;;;;;;;0.40;0.40;;;20.20;98.70;;;;;;5078891;28;20043;-79
2022/09/03 08:30:23;;;;;;;0.30;0.30;;;20.10;98.30;;;;;;5060797;28;20122;-81
2022/09/03 08:32:49;;;;;;;0.40;0.40;;;20.30;98.80;;;;;;5048434;28;20504;-80
2022/09/03 08:35:15;;;;;;;0.30;0.30;;;20.40;98.00;;;;;;5050588;28;20062;-84
2022/09/03 08:37:41;;;;;;;0.40;0.40;;;20.40;98.30;;;;;;5044612;28;20625;-80
2022/09/03 08:40:07;;;;;;;0.32;0.32;;;20.60;97.10;;;;;;5081794;28;20068;-82
2022/09/03 08:42:39;;;;;;;0.40;0.40;;;20.60;98.40;;;;;;5062983;28;20040;-82
2022/09/03 08:45:07;;;;;;;0.30;0.30;;;20.70;97.70;;;;;;5084795;28;20062;-83
2022/09/03 08:47:46;;;;;;;0.40;0.40;;;21.20;97.70;;;;;;5077755;28;20132;-80
2022/09/03 08:50:23;;;;;;;0.40;0.40;;;21.20;97.00;;;;;;5062744;28;20039;-81
2022/09/03 08:53:32;;;;;;;0.30;0.30;;;21.00;96.20;;;;;;5086532;28;20040;-81
2022/09/03 08:56:11;;;;;;;0.30;0.30;;;21.40;97.10;;;;;;5072560;28;20077;-85
2022/09/03 08:58:37;;;;;;;0.30;0.30;;;21.50;97.20;;;;;;5082335;28;20079;-78
2022/09/03 09:01:23;;;;;;;0.30;0.30;;;21.30;95.50;;;;;;5062145;28;20054;-81
2022/09/03 09:04:01;;;;;;;0.30;0.30;;;21.20;96.50;;;;;;5081526;28;20097;-82
2022/09/03 09:06:49;;;;;;;0.30;0.30;;;21.20;96.90;;;;;;5076081;28;20096;-82
2022/09/03 09:09:48;;;;;;;0.30;0.30;;;21.60;96.10;;;;;;5079479;28;20567;-80
2022/09/03 09:12:39;;;;;;;0.40;0.40;;;21.60;95.90;;;;;;5070658;28;20131;-82
2022/09/03 09:15:13;;;;;;;0.30;0.30;;;21.50;95.40;;;;;;5072444;28;20898;-81
2022/09/03 09:17:54;;;;;;;0.30;0.30;;;21.80;95.30;;;;;;5070050;28;20051;-83
2022/09/03 09:20:41;;;;;;;0.30;0.30;;;22.30;96.40;;;;;;5069354;28;20100;-84
2022/09/03 09:23:13;;;;;;;0.30;0.30;;;22.10;95.90;;;;;;5067807;28;20062;-83
2022/09/03 09:25:50;;;;;;;0.30;0.30;;;22.30;96.80;;;;;;5061252;28;20040;-83
2022/09/03 09:28:21;;;;;;;0.30;0.30;;;21.70;95.60;;;;;;5059916;28;20051;-78
2022/09/03 09:30:49;;;;;;;0.30;0.30;;;22.10;95.50;;;;;;5056922;28;20048;-82
2022/09/03 09:33:16;;;;;;;0.30;0.30;;;22.10;95.80;;;;;;5049639;28;20052;-83
2022/09/03 09:35:43;;;;;;;0.30;0.30;;;22.70;95.30;;;;;;5059209;28;20056;-81
2022/09/03 09:38:10;;;;;;;0.30;0.30;;;22.70;95.40;;;;;;5063127;28;20484;-82
2022/09/03 09:40:43;;;;;;;0.30;0.30;;;22.50;94.70;;;;;;5041172;28;20046;-82
2022/09/03 09:43:20;;;;;;;0.30;0.30;;;22.90;95.20;;;;;;5059235;28;20048;-80
2022/09/03 09:45:48;;;;;;;0.40;0.40;;;23.10;95.20;;;;;;5065333;28;20082;-82
2022/09/03 09:48:30;;;;;;;0.30;0.30;;;23.40;95.30;;;;;;5061507;28;20044;-81
2022/09/03 09:51:30;;;;;;;0.30;0.30;;;23.80;95.00;;;;;;5052552;28;20136;-80
2022/09/03 09:54:00;;;;;;;0.30;0.30;;;23.80;94.00;;;;;;5066716;28;20039;-81
2022/09/03 09:56:25;;;;;;;0.30;0.30;;;24.30;94.30;;;;;;5040652;28;20135;-82
2022/09/03 09:59:03;;;;;;;0.30;0.30;;;23.60;93.40;;;;;;5029257;28;20042;-81
2022/09/03 10:01:30;;;;;;;0.30;0.30;;;23.90;93.20;;;;;;5041154;28;20581;-84
2022/09/03 10:03:59;;;;;;;0.30;0.30;;;24.30;93.90;;;;;;5036731;28;20046;-87
2022/09/03 10:09:22;;;;;;;0.30;0.30;;;24.40;93.20;;;;;;5040756;28;20055;-79
2022/09/03 10:12:23;;;;;;;0.30;0.30;;;24.60;92.30;;;;;;5035897;28;20048;-79
2022/09/03 10:14:56;;;;;;;0.30;0.30;;;24.30;92.90;;;;;;5041305;28;20297;-82
2022/09/03 10:17:41;;;;;;;0.30;0.30;;;24.50;92.40;;;;;;5045662;28;20146;-83
2022/09/03 10:20:37;;;;;;;0.30;0.30;;;24.50;92.80;;;;;;5069500;28;20684;-82
2022/09/03 10:23:16;;;;;;;0.30;0.30;;;24.50;92.00;;;;;;5043366;28;20039;-84
2022/09/03 10:26:05;;;;;;;0.30;0.30;;;24.50;91.90;;;;;;5040514;28;20109;-83
2022/09/03 10:28:40;;;;;;;0.30;0.30;;;25.00;92.50;;;;;;5039223;28;20662;-79
2022/09/03 10:31:17;;;;;;;0.30;0.30;;;24.50;91.00;;;;;;5059425;28;20039;-83
2022/09/03 10:33:51;;;;;;;0.30;0.30;;;24.10;92.00;;;;;;5035654;28;20059;-82
2022/09/03 10:36:22;;;;;;;0.40;0.40;;;24.60;91.80;;;;;;5037734;28;20134;-79
2022/09/03 10:39:12;;;;;;;0.30;0.30;;;24.50;91.50;;;;;;5058752;28;20048;-82
2022/09/03 10:41:54;;;;;;;0.30;0.30;;;24.90;91.40;;;;;;5037155;28;20511;-80
2022/09/03 10:44:34;;;;;;;0.30;0.30;;;24.20;90.90;;;;;;5037214;28;20048;-80
2022/09/03 10:47:03;;;;;;;0.30;0.30;;;24.40;90.80;;;;;;5044784;28;20748;-81
2022/09/03 10:49:48;;;;;;;0.30;0.30;;;24.70;90.40;;;;;;5042619;28;20159;-80
2022/09/03 10:52:48;;;;;;;0.30;0.30;;;24.60;90.60;;;;;;5023284;28;20052;-80
2022/09/03 10:56:13;;;;;;;0.30;0.30;;;24.80;90.10;;;;;;5051497;28;20996;-81
2022/09/03 10:58:47;;;;;;;0.30;0.30;;;24.80;89.50;;;;;;4992486;28;20132;-82
2022/09/03 11:02:14;;;;;;;0.30;0.30;;;25.70;90.60;;;;;;5009428;28;20127;-79
2022/09/03 11:04:49;;;;;;;0.30;0.30;;;25.40;89.50;;;;;;4972302;28;20499;-81
2022/09/03 11:07:24;;;;;;;0.30;0.30;;;25.70;88.60;;;;;;5057174;28;20059;-82
2022/09/03 11:10:15;;;;;;;0.30;0.30;;;25.20;89.10;;;;;;5042575;28;20052;-80
2022/09/03 11:12:48;;;;;;;0.30;0.30;;;25.00;90.10;;;;;;5042646;28;20051;-82
2022/09/03 11:15:24;;;;;;;0.30;0.30;;;24.90;89.90;;;;;;5049365;28;20035;-80
2022/09/03 11:17:57;;;;;;;0.30;0.30;;;25.20;89.10;;;;;;5068477;28;20521;-82
2022/09/03 11:20:25;;;;;;;0.30;0.30;;;25.40;88.70;;;;;;5083287;28;20039;-80
2022/09/03 11:22:56;;;;;;;0.30;0.30;;;25.10;87.90;;;;;;5065096;28;20039;-80
2022/09/03 11:25:27;;;;;;;0.30;0.30;;;25.10;88.10;;;;;;5060286;28;20416;-80
2022/09/03 11:28:10;;;;;;;0.30;0.30;;;24.80;85.60;;;;;;5082495;28;20051;-79
2022/09/03 11:31:04;;;;;;;0.30;0.30;;;24.60;87.50;;;;;;5060440;28;20071;-80
2022/09/03 11:33:34;;;;;;;0.30;0.30;;;25.00;87.80;;;;;;5063078;28;20051;-80
2022/09/03 11:36:01;;;;;;;0.30;0.30;;;25.20;86.40;;;;;;5064491;28;20047;-80
2022/09/03 11:38:30;;;;;;;0.30;0.30;;;25.40;88.20;;;;;;5063448;28;20118;-82
2022/09/03 11:40:59;;;;;;;0.30;0.30;;;25.60;87.50;;;;;;5060414;28;20055;-81
2022/09/03 11:43:28;;;;;;;0.30;0.30;;;25.00;87.40;;;;;;5062389;28;20050;-79
2022/09/03 11:46:38;;;;;;;0.30;0.30;;;25.60;87.50;;;;;;5060683;28;20111;-80
2022/09/03 11:49:12;;;;;;;0.30;0.30;;;25.70;86.00;;;;;;5051265;28;20058;-81
2022/09/03 11:51:40;;;;;;;0.30;0.30;;;25.60;85.70;;;;;;5076365;28;20083;-80
2022/09/03 11:54:24;;;;;;;0.30;0.30;;;25.70;86.00;;;;;;5065320;28;20044;-82
2022/09/03 11:57:02;;;;;;;0.30;0.30;;;25.60;84.40;;;;;;5047620;28;20131;-83
2022/09/03 11:59:30;;;;;;;0.40;0.40;;;25.40;84.70;;;;;;5061387;28;20138;-78
2022/09/03 12:02:33;;;;;;;0.30;0.30;;;25.60;84.40;;;;;;5041840;28;20062;-84
2022/09/03 12:05:19;;;;;;;0.30;0.30;;;25.80;86.90;;;;;;5078442;28;20149;-82
2022/09/03 12:08:16;;;;;;;0.30;0.30;;;26.20;84.90;;;;;;5065149;28;20561;-78
2022/09/03 12:11:15;;;;;;;0.30;0.30;;;25.80;87.60;;;;;;5038804;28;20058;-80
2022/09/03 12:13:59;;;;;;;0.30;0.30;;;26.00;83.60;;;;;;5061572;28;20138;-83
2022/09/03 12:16:37;;;;;;;0.30;0.30;;;26.20;86.70;;;;;;5080173;28;20040;-83
2022/09/03 12:19:26;;;;;;;0.30;0.30;;;26.00;84.50;;;;;;5079720;28;20071;-80
2022/09/03 12:21:52;;;;;;;0.30;0.30;;;25.90;85.00;;;;;;5052234;28;21216;-83
2022/09/03 12:24:19;;;;;;;0.30;0.30;;;25.90;84.30;;;;;;5080799;28;20195;-84
2022/09/03 12:26:44;;;;;;;0.30;0.30;;;26.30;84.50;;;;;;5085044;28;20051;-82
2022/09/03 12:29:26;;;;;;;0.30;0.30;;;25.90;83.80;;;;;;5064675;28;20043;-81
2022/09/03 12:31:55;;;;;;;0.30;0.30;;;26.00;83.30;;;;;;5049988;28;20090;-82
2022/09/03 12:34:22;;;;;;;0.30;0.30;;;26.30;85.00;;;;;;5086882;28;20036;-84
2022/09/03 12:36:53;;;;;;;0.30;0.30;;;26.30;85.10;;;;;;5086963;28;20079;-81
2022/09/03 12:39:24;;;;;;;0.30;0.30;;;26.70;85.90;;;;;;5083286;28;21006;-82
2022/09/03 12:42:09;;;;;;;0.30;0.30;;;26.60;85.60;;;;;;5082908;28;20047;-83
2022/09/03 12:44:35;;;;;;;0.52;0.30;;;26.10;82.40;;;;;;5082378;28;20089;-82
2022/09/03 12:47:17;;;;;;;0.30;0.30;;;26.10;83.20;;;;;;5065584;28;20051;-82
2022/09/03 12:49:45;;;;;;;0.30;0.30;;;25.90;86.00;;;;;;5067066;28;20729;-82
2022/09/03 12:52:46;;;;;;;0.30;0.30;;;26.20;84.00;;;;;;5081837;28;20102;-82
2022/09/03 12:55:30;;;;;;;0.22;0.22;;;25.60;83.10;;;;;;5067578;28;20060;-81
2022/09/03 12:58:19;;;;;;;0.30;0.30;;;26.00;84.30;;;;;;5065802;28;20043;-81
2022/09/03 13:01:10;;;;;;;0.40;0.40;;;25.70;83.40;;;;;;5064570;28;20048;-82
2022/09/03 13:03:46;;;;;;;0.30;0.30;;;25.90;83.90;;;;;;5067178;28;20039;-82
2022/09/03 13:06:16;;;;;;;0.30;0.30;;;25.90;83.10;;;;;;5064678;28;20127;-83
2022/09/03 13:08:48;;;;;;;0.30;0.30;;;26.60;84.00;;;;;;5070203;28;20161;-82
2022/09/03 13:11:20;;;;;;;0.30;0.30;;;26.30;82.90;;;;;;5047142;28;20066;-81
2022/09/03 13:14:11;;;;;;;0.30;0.30;;;26.60;82.40;;;;;;5061265;28;20126;-81
2022/09/03 13:16:37;;;;;;;0.30;0.30;;;26.60;84.00;;;;;;5058075;28;20043;-81
2022/09/03 13:19:08;;;;;;;0.30;0.30;;;26.70;83.40;;;;;;5061795;28;20085;-82
2022/09/03 13:21:40;;;;;;;0.30;0.30;;;26.60;86.10;;;;;;5063148;28;20124;-82
2022/09/03 13:24:37;;;;;;;0.30;0.30;;;26.30;82.60;;;;;;5061126;28;20394;-85
2022/09/03 13:27:54;;;;;;;0.30;0.30;;;26.10;84.40;;;;;;5052469;28;20053;-81